createdAt,value
2023-01-13T00:02:53.969Z,97095.34
2023-01-13T00:05:55.475Z,97106.84
2023-01-13T00:08:57.781Z,97115.59
2023-01-13T00:11:59.308Z,97096.75
2023-01-13T00:15:00.830Z,97093.53
2023-01-13T00:18:02.437Z,97088.38
2023-01-13T00:21:11.446Z,97079.63
2023-01-13T00:24:12.979Z,97087.56
2023-01-13T00:27:14.582Z,97116.47
2023-01-13T00:30:16.355Z,97100.22
2023-01-13T00:33:18.193Z,97047.19
2023-01-13T00:36:20.692Z,97074.63
2023-01-13T00:39:22.232Z,97098.41
2023-01-13T00:42:42.229Z,97093.66
2023-01-13T00:45:44.015Z,97077.28
2023-01-13T00:48:47.027Z,97083.91
2023-01-13T00:51:48.577Z,97079.06
2023-01-13T00:54:50.110Z,97067.41
2023-01-13T00:57:51.693Z,97063.59
2023-01-13T01:00:53.303Z,97057.84
2023-01-13T01:03:55.321Z,97051.72
2023-01-13T01:06:56.819Z,97068.69
2023-01-13T01:09:58.376Z,97063.94
2023-01-13T01:12:59.864Z,97051.09
2023-01-13T01:16:06.860Z,97056.75
2023-01-13T01:19:08.495Z,97047.50
2023-01-13T01:22:10.099Z,97120.25
2023-01-13T01:25:11.730Z,97049.97
2023-01-13T01:28:13.323Z,97051.19
2023-01-13T01:31:20.653Z,97054.72
2023-01-13T01:34:22.220Z,97047.97
2023-01-13T01:37:23.728Z,97063.63
2023-01-13T01:40:27.143Z,97041.31
2023-01-13T01:44:00.296Z,97037.84
2023-01-13T01:47:02.068Z,97022.00
2023-01-13T01:50:04.695Z,97026.13
2023-01-13T01:53:13.825Z,97028.38
2023-01-13T01:56:17.047Z,97023.00
2023-01-13T01:59:18.767Z,97049.06
2023-01-13T02:02:20.826Z,97038.66
2023-01-13T02:05:22.902Z,97041.50
2023-01-13T02:08:25.078Z,97028.75
2023-01-13T02:11:54.892Z,97020.84
2023-01-13T02:15:03.021Z,97017.06
2023-01-13T02:18:16.763Z,97016.06
2023-01-13T02:21:26.982Z,97022.91
2023-01-13T02:24:56.633Z,97028.81
2023-01-13T02:28:26.449Z,97025.38
2023-01-13T02:31:44.644Z,97014.81
2023-01-13T02:35:00.176Z,97010.31
2023-01-13T02:38:02.901Z,97003.94
2023-01-13T02:41:29.056Z,97015.88
2023-01-13T02:44:42.720Z,97002.03
2023-01-13T02:47:47.767Z,97001.00
2023-01-13T02:50:59.711Z,96996.28
2023-01-13T02:54:07.475Z,96991.81
2023-01-13T02:57:11.793Z,97007.31
2023-01-13T03:00:15.507Z,97013.25
2023-01-13T03:03:17.101Z,97027.59
2023-01-13T03:06:30.802Z,97010.94
2023-01-13T03:09:55.510Z,96996.00
2023-01-13T03:13:08.187Z,97003.75
2023-01-13T03:16:28.280Z,97004.28
2023-01-13T03:19:39.206Z,96990.78
2023-01-13T03:22:49.090Z,96999.53
2023-01-13T03:26:01.857Z,97004.81
2023-01-13T03:29:22.020Z,97008.09
2023-01-13T03:32:28.813Z,97000.25
2023-01-13T03:35:47.228Z,96979.06
2023-01-13T03:38:53.901Z,96993.34
2023-01-13T03:42:01.471Z,96988.06
2023-01-13T03:45:15.639Z,96996.63
2023-01-13T03:48:20.998Z,96980.69
2023-01-13T03:51:27.708Z,96987.44
2023-01-13T03:54:33.907Z,96976.22
2023-01-13T03:57:42.893Z,96980.03
2023-01-13T04:00:52.262Z,96989.63
2023-01-13T04:04:00.263Z,96989.16
2023-01-13T04:07:23.255Z,96969.38
2023-01-13T04:10:34.507Z,96980.19
2023-01-13T04:13:40.081Z,96964.16
2023-01-13T04:16:42.109Z,96968.47
2023-01-13T04:19:43.645Z,96979.28
2023-01-13T04:22:45.231Z,96955.50
2023-01-13T04:25:47.404Z,96966.91
2023-01-13T04:28:49.070Z,96969.19
2023-01-13T04:31:50.650Z,96965.09
2023-01-13T04:34:52.239Z,96964.47
2023-01-13T04:37:53.813Z,96968.63
2023-01-13T04:40:55.336Z,96955.06
2023-01-13T04:43:56.914Z,96962.97
2023-01-13T04:46:58.822Z,96964.50
2023-01-13T04:50:00.348Z,96960.16
2023-01-13T04:53:02.047Z,96974.91
2023-01-13T04:56:03.691Z,96948.78
2023-01-13T04:59:05.401Z,96979.28
2023-01-13T05:02:08.970Z,96978.28
2023-01-13T05:05:10.729Z,96960.00
2023-01-13T05:08:12.307Z,96970.25
2023-01-13T05:11:32.587Z,96962.97
2023-01-13T05:14:52.380Z,96955.91
2023-01-13T05:17:54.037Z,96958.06
2023-01-13T05:20:55.739Z,96967.81
2023-01-13T05:24:16.475Z,96980.81
2023-01-13T05:27:18.530Z,97001.47
2023-01-13T05:30:31.092Z,96963.19
2023-01-13T05:33:34.881Z,96952.78
2023-01-13T05:36:37.859Z,96952.97
2023-01-13T05:40:00.470Z,96983.00
2023-01-13T05:43:21.164Z,96958.41
2023-01-13T05:46:22.850Z,96955.31
2023-01-13T05:49:24.950Z,96941.13
2023-01-13T05:52:26.628Z,96946.59
2023-01-13T05:55:28.159Z,96933.56
2023-01-13T05:58:29.707Z,96940.28
2023-01-13T06:01:34.270Z,96951.41
2023-01-13T06:04:35.851Z,96963.06
2023-01-13T06:07:37.456Z,96919.84
2023-01-13T06:10:39.236Z,96977.25
2023-01-13T06:13:40.837Z,96939.81
2023-01-13T06:16:42.406Z,96947.84
2023-01-13T06:19:44.006Z,96923.13
2023-01-13T06:22:48.046Z,96940.41
2023-01-13T06:26:22.994Z,96931.50
2023-01-13T06:29:24.566Z,96936.94
2023-01-13T06:32:32.500Z,96898.50
2023-01-13T06:35:37.593Z,96923.91
2023-01-13T06:38:42.923Z,96928.38
2023-01-13T06:42:04.078Z,96932.81
2023-01-13T06:45:06.033Z,96937.28
2023-01-13T06:48:07.838Z,96929.72
2023-01-13T06:51:09.459Z,96928.75
2023-01-13T06:54:11.002Z,96913.53
2023-01-13T06:57:12.577Z,96945.84
2023-01-13T07:00:15.742Z,96939.13
2023-01-13T07:03:18.776Z,96958.59
2023-01-13T07:06:20.415Z,96922.56
2023-01-13T07:09:22.029Z,96929.56
2023-01-13T07:12:23.773Z,96919.25
2023-01-13T07:15:30.057Z,96943.81
2023-01-13T07:18:33.117Z,96923.63
2023-01-13T07:21:34.671Z,96935.69
2023-01-13T07:24:36.136Z,96915.25
2023-01-13T07:27:38.112Z,96935.69
2023-01-13T07:30:39.844Z,96946.22
2023-01-13T07:33:41.464Z,96943.13
2023-01-13T07:36:42.964Z,96956.97
2023-01-13T07:39:45.409Z,96959.06
2023-01-13T07:43:05.376Z,96957.91
2023-01-13T07:46:07.183Z,96955.34
2023-01-13T07:49:09.128Z,96952.69
2023-01-13T07:52:10.711Z,96951.06
2023-01-13T07:55:12.265Z,96950.78
2023-01-13T07:58:13.765Z,96981.19
2023-01-13T08:01:16.656Z,96961.84
2023-01-13T08:04:18.577Z,96967.50
2023-01-13T08:07:20.173Z,97001.00
2023-01-13T08:10:21.708Z,96974.63
2023-01-13T08:13:23.460Z,96977.09
2023-01-13T08:16:25.157Z,97005.88
2023-01-13T08:19:26.831Z,97008.53
2023-01-13T08:22:31.033Z,96998.81
2023-01-13T08:25:32.948Z,97032.88
2023-01-13T08:28:34.960Z,97016.06
2023-01-13T08:31:36.516Z,97038.47
2023-01-13T08:34:38.012Z,96998.47
2023-01-13T08:37:40.009Z,97015.25
2023-01-13T08:40:41.667Z,97021.66
2023-01-13T08:43:43.260Z,97036.94
2023-01-13T08:46:44.796Z,97032.47
2023-01-13T08:49:46.346Z,97046.25
2023-01-13T08:52:47.876Z,97032.75
2023-01-13T08:55:49.468Z,97031.72
2023-01-13T08:58:51.125Z,97054.94
2023-01-13T09:01:52.781Z,97060.47
2023-01-13T09:04:55.327Z,97054.81
2023-01-13T09:07:56.824Z,97059.06
2023-01-13T09:10:58.606Z,97054.38
2023-01-13T09:14:02.421Z,97072.97
2023-01-13T09:17:04.946Z,97061.97
2023-01-13T09:20:06.807Z,97076.00
2023-01-13T09:23:10.569Z,97083.50
2023-01-13T09:26:16.752Z,97058.78
2023-01-13T09:29:18.716Z,97056.44
2023-01-13T09:32:20.264Z,97078.31
2023-01-13T09:35:21.789Z,97068.69
2023-01-13T09:38:23.418Z,97080.47
2023-01-13T09:41:45.965Z,97087.59
2023-01-13T09:45:06.078Z,97071.91
2023-01-13T09:48:24.607Z,97086.16
2023-01-13T09:52:26.736Z,97079.66
2023-01-13T09:55:34.059Z,97068.69
2023-01-13T09:58:36.999Z,97073.06
2023-01-13T10:02:17.055Z,97070.56
2023-01-13T10:05:38.997Z,97094.41
2023-01-13T10:08:43.305Z,97112.38
2023-01-13T10:12:05.937Z,97101.56
2023-01-13T10:15:19.834Z,97104.53
2023-01-13T10:18:38.965Z,97093.69
2023-01-13T10:22:04.387Z,97097.88
2023-01-13T10:25:20.964Z,97087.22
2023-01-13T10:28:23.972Z,97105.94
2023-01-13T10:31:26.356Z,97097.56
2023-01-13T10:34:29.180Z,97113.25
2023-01-13T10:37:31.150Z,97093.53
2023-01-13T10:40:32.753Z,97092.81
2023-01-13T10:43:34.320Z,97124.94
2023-01-13T10:46:51.982Z,97117.69
2023-01-13T10:50:13.080Z,97130.75
2023-01-13T10:53:22.927Z,97108.09
2023-01-13T10:56:34.993Z,97121.53
2023-01-13T10:59:36.598Z,97118.78
2023-01-13T11:02:38.728Z,97118.25
2023-01-13T11:05:40.846Z,97135.84
2023-01-13T11:08:47.822Z,97118.94
2023-01-13T11:11:55.548Z,97146.41
2023-01-13T11:15:00.287Z,97108.72
2023-01-13T11:18:09.381Z,97115.72
2023-01-13T11:21:34.313Z,97141.84
2023-01-13T11:25:01.788Z,97114.06
2023-01-13T11:28:27.253Z,97089.53
2023-01-13T11:31:38.064Z,97112.69
2023-01-13T11:34:41.944Z,97118.41
2023-01-13T11:37:50.325Z,97129.03
2023-01-13T11:40:52.210Z,97102.47
2023-01-13T11:44:13.086Z,97122.31
2023-01-13T11:47:20.323Z,97140.44
2023-01-13T11:50:33.933Z,97130.50
2023-01-13T11:53:52.931Z,97138.38
2023-01-13T11:57:22.389Z,97142.75
2023-01-13T12:00:43.696Z,97145.91
2023-01-13T12:04:00.134Z,97149.00
2023-01-13T12:07:23.284Z,97161.69
2023-01-13T12:10:30.983Z,97160.69
2023-01-13T12:13:57.163Z,97164.50
2023-01-13T12:17:01.298Z,97170.53
2023-01-13T12:20:24.257Z,97175.38
2023-01-13T12:23:51.766Z,97169.81
2023-01-13T12:27:00.600Z,97145.41
2023-01-13T12:30:13.860Z,97149.47
2023-01-13T12:33:43.385Z,97150.94
2023-01-13T12:37:09.479Z,97154.88
2023-01-13T12:40:48.831Z,97161.47
2023-01-13T12:44:11.358Z,97155.13
2023-01-13T12:47:34.209Z,97154.75
2023-01-13T12:50:41.034Z,97159.94
2023-01-13T12:53:42.909Z,97173.47
2023-01-13T12:56:45.323Z,97161.78
2023-01-13T13:00:05.020Z,97166.63
2023-01-13T13:03:13.656Z,97163.69
2023-01-13T13:06:22.981Z,97161.06
2023-01-13T13:09:36.605Z,97153.66
2023-01-13T13:12:59.814Z,97170.25
2023-01-13T13:16:26.510Z,97185.06
2023-01-13T13:19:31.200Z,97183.16
2023-01-13T13:22:44.594Z,97196.09
2023-01-13T13:26:20.073Z,97182.03
2023-01-13T13:29:58.372Z,97184.09
2023-01-13T13:33:11.271Z,97192.59
2023-01-13T13:36:58.479Z,97194.16
2023-01-13T13:40:27.652Z,97187.53
2023-01-13T13:43:56.974Z,97213.19
2023-01-13T13:47:02.828Z,97211.31
2023-01-13T13:50:20.882Z,97219.59
2023-01-13T13:53:25.884Z,97227.19
2023-01-13T13:56:29.176Z,97236.09
2023-01-13T13:59:31.087Z,97260.47
2023-01-13T14:02:38.607Z,97243.34
2023-01-13T14:05:51.899Z,97262.28
2023-01-13T14:08:53.387Z,97282.31
2023-01-13T14:12:09.084Z,97263.75
2023-01-13T14:15:34.982Z,97266.69
2023-01-13T14:18:45.962Z,97286.13
2023-01-13T14:21:48.300Z,97293.00
2023-01-13T14:24:55.385Z,97300.09
2023-01-13T14:27:59.541Z,97295.03
2023-01-13T14:31:01.382Z,97299.00
2023-01-13T14:34:31.221Z,97288.16
2023-01-13T14:37:54.428Z,97297.50
2023-01-13T14:40:56.373Z,97304.41
2023-01-13T14:44:00.419Z,97322.03
2023-01-13T14:47:03.978Z,97308.41
2023-01-13T14:50:07.538Z,97314.19
2023-01-13T14:53:28.006Z,97326.53
2023-01-13T14:56:55.566Z,97315.84
2023-01-13T15:00:08.063Z,97320.31
2023-01-13T15:03:17.161Z,97317.50
2023-01-13T15:06:24.431Z,97319.16
2023-01-13T15:09:29.690Z,97318.00
2023-01-13T15:12:36.210Z,97326.06
2023-01-13T15:15:39.791Z,97343.53
2023-01-13T15:18:41.371Z,97347.97
2023-01-13T15:21:42.943Z,97338.44
2023-01-13T15:24:44.486Z,97334.66
2023-01-13T15:27:50.577Z,97337.31
2023-01-13T15:30:54.450Z,97335.69
2023-01-13T15:33:56.463Z,97341.91
2023-01-13T15:36:58.000Z,97358.38
2023-01-13T15:39:59.522Z,97362.97
2023-01-13T15:43:19.640Z,97370.50
2023-01-13T15:46:40.368Z,97372.75
2023-01-13T15:49:46.273Z,97389.19
2023-01-13T15:52:50.581Z,97384.06
2023-01-13T15:55:57.717Z,97395.75
2023-01-13T15:59:20.407Z,97391.59
2023-01-13T16:02:22.657Z,97400.34
2023-01-13T16:05:24.813Z,97404.25
2023-01-13T16:08:26.432Z,97398.31
2023-01-13T16:11:27.996Z,97399.47
2023-01-13T16:14:29.585Z,97400.63
2023-01-13T16:17:35.027Z,97383.16
2023-01-13T16:20:36.755Z,97400.94
2023-01-13T16:23:38.309Z,97394.00
2023-01-13T16:26:40.080Z,97394.16
2023-01-13T16:29:42.455Z,97408.16
2023-01-13T16:32:44.068Z,97397.94
2023-01-13T16:36:11.814Z,97409.13
2023-01-13T16:39:20.840Z,97414.03
2023-01-13T16:42:22.574Z,97430.00
2023-01-13T16:45:24.886Z,97429.28
2023-01-13T16:48:26.558Z,97431.34
2023-01-13T16:51:28.396Z,97424.56
2023-01-13T16:54:29.937Z,97434.16
2023-01-13T16:57:31.505Z,97428.59
2023-01-13T17:00:34.037Z,97435.53
2023-01-13T17:03:44.392Z,97427.97
2023-01-13T17:07:00.444Z,97440.66
2023-01-13T17:10:02.092Z,97439.69
2023-01-13T17:13:14.863Z,97445.56
2023-01-13T17:16:21.118Z,97471.75
2023-01-13T17:23:13.449Z,97494.19
2023-01-13T17:26:27.424Z,97497.22
2023-01-13T17:29:29.078Z,97509.06
2023-01-13T17:32:30.707Z,97508.56
2023-01-13T17:35:32.330Z,97510.19
2023-01-13T17:38:36.889Z,97502.75
2023-01-13T17:41:38.487Z,97517.13
2023-01-13T17:44:40.170Z,97536.19
2023-01-13T17:47:41.817Z,97532.59
2023-01-13T17:50:47.542Z,97522.09
2023-01-13T17:53:49.177Z,97535.44
2023-01-13T17:56:50.785Z,97519.84
2023-01-13T17:59:52.316Z,97550.66
2023-01-13T18:02:54.501Z,97546.41
2023-01-13T18:06:02.700Z,97557.47
2023-01-13T18:09:04.365Z,97558.56
2023-01-13T18:12:06.197Z,97562.56
2023-01-13T18:15:08.177Z,97573.53
2023-01-13T18:18:09.704Z,97582.13
2023-01-13T18:21:38.289Z,97589.59
2023-01-13T18:24:58.580Z,97595.94
2023-01-13T18:28:03.297Z,97612.66
2023-01-13T18:31:05.176Z,97622.19
2023-01-13T18:34:06.861Z,97619.56
2023-01-13T18:37:12.256Z,97638.22
2023-01-13T18:40:14.175Z,97620.38
2023-01-13T18:43:15.718Z,97630.19
2023-01-13T18:46:17.363Z,97627.56
2023-01-13T18:49:19.064Z,97632.94
2023-01-13T18:52:21.711Z,97629.19
2023-01-13T18:55:25.134Z,97641.50
2023-01-13T18:58:27.873Z,97630.06
2023-01-13T19:01:29.934Z,97635.84
2023-01-13T19:04:32.639Z,97649.22
2023-01-13T19:07:35.701Z,97649.53
2023-01-13T19:10:39.765Z,97658.22
2023-01-13T19:13:47.598Z,97672.47
2023-01-13T19:16:49.118Z,97674.28
2023-01-13T19:19:55.377Z,97669.28
2023-01-13T19:22:56.947Z,97685.47
2023-01-13T19:26:06.340Z,97683.38
2023-01-13T19:29:08.736Z,97674.41
2023-01-13T19:32:10.720Z,97682.56
2023-01-13T19:35:17.184Z,97675.53
2023-01-13T19:38:18.747Z,97680.94
2023-01-13T19:41:38.883Z,97674.41
2023-01-13T19:44:59.356Z,97686.84
2023-01-13T19:48:02.304Z,97695.97
2023-01-13T19:51:04.457Z,97698.63
2023-01-13T19:54:05.959Z,97712.00
2023-01-13T19:57:07.521Z,97710.34
2023-01-13T20:00:10.070Z,97721.00
2023-01-13T20:03:20.507Z,97717.25
2023-01-13T20:06:22.146Z,97712.59
2023-01-13T20:09:23.692Z,97711.63
2023-01-13T20:12:29.198Z,97720.47
2023-01-13T20:15:31.650Z,97713.44
2023-01-13T20:18:36.421Z,97720.59
2023-01-13T20:21:39.711Z,97725.03
2023-01-13T20:24:41.589Z,97711.19
2023-01-13T20:27:43.912Z,97715.47
2023-01-13T20:30:45.684Z,97713.78
2023-01-13T20:33:50.444Z,97718.09
2023-01-13T20:36:52.180Z,97715.03
2023-01-13T20:39:55.275Z,97718.63
2023-01-13T20:42:57.009Z,97712.03
2023-01-13T20:45:58.691Z,97715.75
2023-01-13T20:49:00.303Z,97717.97
2023-01-13T20:52:03.471Z,97740.66
2023-01-13T20:55:07.047Z,97734.03
2023-01-13T20:58:08.842Z,97735.66
2023-01-13T21:01:10.407Z,97740.47
2023-01-13T21:04:12.103Z,97741.22
2023-01-13T21:07:13.903Z,97745.50
2023-01-13T21:10:18.809Z,97747.72
2023-01-13T21:13:39.036Z,97759.72
2023-01-13T21:16:40.754Z,97750.91
2023-01-13T21:19:42.342Z,97759.16
2023-01-13T21:22:48.454Z,97754.63
2023-01-13T21:25:50.022Z,97758.19
2023-01-13T21:28:56.196Z,97746.72
2023-01-13T21:31:57.844Z,97743.84
2023-01-13T21:34:59.383Z,97749.50
2023-01-13T21:38:01.063Z,97750.03
2023-01-13T21:41:06.253Z,97757.91
2023-01-13T21:44:34.250Z,97764.94
2023-01-13T21:47:51.966Z,97771.69
2023-01-13T21:50:53.502Z,97766.31
2023-01-13T21:53:55.872Z,97755.94
2023-01-13T21:56:57.498Z,97754.88
2023-01-13T21:59:59.114Z,97751.56
2023-01-13T22:03:05.642Z,97758.03
2023-01-13T22:06:07.302Z,97759.97
2023-01-13T22:09:08.879Z,97765.94
2023-01-13T22:12:10.655Z,97758.19
2023-01-13T22:15:14.958Z,97764.25
2023-01-13T22:18:18.097Z,97745.88
2023-01-13T22:21:20.075Z,97758.34
2023-01-13T22:24:21.575Z,97771.31
2023-01-13T22:27:26.165Z,97782.00
2023-01-13T22:30:32.116Z,97768.31
2023-01-13T22:33:33.653Z,97777.16
2023-01-13T22:36:35.197Z,97772.88
2023-01-13T22:39:36.808Z,97771.06
2023-01-13T22:42:42.502Z,97768.59
2023-01-13T22:45:44.074Z,97773.69
2023-01-13T22:48:46.088Z,97776.19
2023-01-13T22:51:47.766Z,97775.09
2023-01-13T22:54:49.311Z,97770.41
2023-01-13T22:57:50.964Z,97782.28
2023-01-13T23:00:53.244Z,97769.00
2023-01-13T23:03:55.429Z,97770.94
2023-01-13T23:06:57.053Z,97764.59
2023-01-13T23:09:58.577Z,97770.13
2023-01-13T23:13:00.135Z,97759.25
2023-01-13T23:16:03.972Z,97755.94
2023-01-13T23:19:06.964Z,97766.03
2023-01-13T23:22:08.482Z,97778.44
2023-01-13T23:25:10.883Z,97769.75
2023-01-13T23:28:12.594Z,97756.50
2023-01-13T23:31:19.554Z,97745.72
2023-01-13T23:34:21.223Z,97752.91
2023-01-13T23:37:22.830Z,97758.72
2023-01-13T23:40:24.570Z,97740.75
2023-01-13T23:43:29.863Z,97745.47
2023-01-13T23:46:32.704Z,97732.88
2023-01-13T23:49:34.591Z,97732.06
2023-01-13T23:52:36.202Z,97725.41
2023-01-13T23:55:37.713Z,97718.78
2023-01-13T23:58:39.812Z,97723.75
